createdAt,value
2023-01-07T00:00:46.531Z,998.69
2023-01-07T00:01:46.510Z,998.65
2023-01-07T00:02:46.639Z,998.64
2023-01-07T00:03:46.631Z,998.67
2023-01-07T00:04:46.468Z,998.65
2023-01-07T00:05:46.450Z,998.64
2023-01-07T00:06:46.432Z,998.60
2023-01-07T00:07:46.412Z,998.61
2023-01-07T00:08:46.400Z,998.61
2023-01-07T00:09:46.389Z,998.59
2023-01-07T00:10:46.363Z,998.60
2023-01-07T00:11:46.345Z,998.59
2023-01-07T00:12:46.347Z,998.56
2023-01-07T00:13:46.313Z,998.57
2023-01-07T00:14:46.301Z,998.55
2023-01-07T00:15:46.453Z,998.56
2023-01-07T00:16:46.347Z,998.59
2023-01-07T00:17:46.280Z,998.55
2023-01-07T00:18:46.288Z,998.52
2023-01-07T00:19:46.266Z,998.50
2023-01-07T00:20:46.204Z,998.53
2023-01-07T00:21:46.236Z,998.49
2023-01-07T00:22:46.170Z,998.52
2023-01-07T00:23:46.180Z,998.53
2023-01-07T00:24:46.160Z,998.53
2023-01-07T00:25:46.180Z,998.50
2023-01-07T00:26:46.156Z,998.52
2023-01-07T00:27:46.125Z,998.47
2023-01-07T00:28:46.126Z,998.46
2023-01-07T00:29:46.066Z,998.45
2023-01-07T00:30:46.048Z,998.42
2023-01-07T00:31:46.231Z,998.44
2023-01-07T00:32:46.022Z,998.40
2023-01-07T00:33:46.021Z,998.42
2023-01-07T00:34:46.041Z,998.36
2023-01-07T00:35:45.985Z,998.40
2023-01-07T00:36:45.970Z,998.40
2023-01-07T00:37:45.934Z,998.38
2023-01-07T00:38:45.909Z,998.42
2023-01-07T00:39:45.942Z,998.37
2023-01-07T00:40:45.965Z,998.41
2023-01-07T00:41:45.867Z,998.40
2023-01-07T00:42:45.907Z,998.41
2023-01-07T00:43:45.895Z,998.39
2023-01-07T00:44:45.818Z,998.38
2023-01-07T00:45:45.817Z,998.36
2023-01-07T00:46:45.851Z,998.35
2023-01-07T00:47:45.866Z,998.36
2023-01-07T00:48:45.757Z,998.34
2023-01-07T00:49:45.780Z,998.37
2023-01-07T00:50:45.724Z,998.33
2023-01-07T00:51:45.752Z,998.34
2023-01-07T00:52:45.754Z,998.36
2023-01-07T00:53:45.726Z,998.33
2023-01-07T00:54:45.701Z,998.35
2023-01-07T00:55:45.633Z,998.36
2023-01-07T00:56:45.639Z,998.32
2023-01-07T00:57:45.616Z,998.34
2023-01-07T00:58:45.715Z,998.32
2023-01-07T00:59:45.588Z,998.31
2023-01-07T01:00:45.619Z,998.30
2023-01-07T01:01:45.762Z,998.29
2023-01-07T01:02:45.706Z,998.29
2023-01-07T01:03:45.604Z,998.25
2023-01-07T01:04:45.663Z,998.23
2023-01-07T01:05:45.574Z,998.21
2023-01-07T01:06:45.556Z,998.23
2023-01-07T01:07:45.501Z,998.25
2023-01-07T01:08:45.459Z,998.24
2023-01-07T01:09:45.526Z,998.26
2023-01-07T01:10:45.447Z,998.25
2023-01-07T01:11:45.475Z,998.23
2023-01-07T01:12:45.401Z,998.26
2023-01-07T01:13:45.394Z,998.27
2023-01-07T01:14:45.433Z,998.29
2023-01-07T01:15:45.375Z,998.28
2023-01-07T01:16:45.328Z,998.22
2023-01-07T01:17:45.302Z,998.27
2023-01-07T01:18:45.278Z,998.28
2023-01-07T01:19:45.343Z,998.26
2023-01-07T01:20:45.270Z,998.21
2023-01-07T01:21:45.288Z,998.25
2023-01-07T01:22:45.278Z,998.23
2023-01-07T01:23:45.304Z,998.24
2023-01-07T01:24:45.222Z,998.22
2023-01-07T01:25:45.183Z,998.20
2023-01-07T01:26:45.134Z,998.18
2023-01-07T01:27:45.125Z,998.13
2023-01-07T01:28:45.095Z,998.17
2023-01-07T01:29:45.113Z,998.12
2023-01-07T01:30:45.062Z,998.10
2023-01-07T01:31:45.081Z,998.13
2023-01-07T01:32:45.039Z,998.10
2023-01-07T01:33:45.030Z,998.13
2023-01-07T01:34:45.004Z,998.14
2023-01-07T01:35:45.090Z,998.15
2023-01-07T01:36:44.987Z,998.15
2023-01-07T01:37:44.948Z,998.13
2023-01-07T01:38:44.945Z,998.12
2023-01-07T01:39:44.932Z,998.13
2023-01-07T01:40:44.899Z,998.16
2023-01-07T01:41:44.881Z,998.19
2023-01-07T01:42:44.879Z,998.15
2023-01-07T01:43:44.897Z,998.19
2023-01-07T01:44:44.838Z,998.16
2023-01-07T01:45:44.822Z,998.18
2023-01-07T01:46:44.829Z,998.16
2023-01-07T01:47:44.785Z,998.15
2023-01-07T01:48:44.775Z,998.12
2023-01-07T01:49:44.799Z,998.12
2023-01-07T01:50:44.820Z,998.09
2023-01-07T01:51:44.836Z,998.11
2023-01-07T01:52:45.742Z,998.09
2023-01-07T01:53:44.708Z,998.07
2023-01-07T01:54:44.732Z,998.02
2023-01-07T01:55:44.677Z,998.00
2023-01-07T01:56:44.645Z,998.01
2023-01-07T01:57:44.639Z,998.03
2023-01-07T01:58:44.624Z,998.01
2023-01-07T01:59:44.686Z,997.99
2023-01-07T02:00:44.717Z,997.99
2023-01-07T02:01:44.757Z,998.00
2023-01-07T02:02:44.692Z,997.97
2023-01-07T02:03:44.537Z,997.96
2023-01-07T02:04:44.519Z,997.96
2023-01-07T02:05:44.525Z,997.98
2023-01-07T02:06:44.597Z,998.01
2023-01-07T02:07:44.582Z,998.02
2023-01-07T02:08:44.599Z,998.01
2023-01-07T02:09:44.668Z,997.95
2023-01-07T02:10:44.540Z,997.96
2023-01-07T02:11:44.522Z,997.94
2023-01-07T02:12:44.396Z,997.94
2023-01-07T02:13:44.382Z,997.93
2023-01-07T02:14:44.368Z,997.88
2023-01-07T02:15:44.333Z,997.91
2023-01-07T02:16:44.429Z,997.90
2023-01-07T02:17:44.348Z,997.92
2023-01-07T02:18:44.298Z,997.88
2023-01-07T02:19:44.299Z,997.88
2023-01-07T02:20:44.309Z,997.91
2023-01-07T02:21:44.294Z,997.88
2023-01-07T02:22:44.290Z,997.87
2023-01-07T02:23:44.295Z,997.87
2023-01-07T02:24:44.216Z,997.86
2023-01-07T02:25:44.205Z,997.88
2023-01-07T02:26:44.178Z,997.86
2023-01-07T02:27:44.142Z,997.86
2023-01-07T02:28:44.187Z,997.87
2023-01-07T02:29:44.114Z,997.87
2023-01-07T02:30:44.115Z,997.85
2023-01-07T02:31:44.171Z,997.87
2023-01-07T02:32:44.068Z,997.84
2023-01-07T02:33:44.042Z,997.82
2023-01-07T02:34:44.025Z,997.84
2023-01-07T02:35:44.063Z,997.81
2023-01-07T02:36:43.994Z,997.78
2023-01-07T02:37:44.022Z,997.81
2023-01-07T02:38:43.966Z,997.76
2023-01-07T02:39:44.054Z,997.78
2023-01-07T02:40:43.981Z,997.75
2023-01-07T02:41:43.946Z,997.78
2023-01-07T02:42:43.890Z,997.73
2023-01-07T02:43:43.875Z,997.78
2023-01-07T02:44:43.862Z,997.71
2023-01-07T02:45:43.879Z,997.73
2023-01-07T02:46:43.855Z,997.73
2023-01-07T02:47:43.815Z,997.74
2023-01-07T02:48:43.881Z,997.72
2023-01-07T02:49:43.874Z,997.67
2023-01-07T02:50:43.802Z,997.65
2023-01-07T02:51:43.818Z,997.66
2023-01-07T02:52:43.812Z,997.62
2023-01-07T02:53:43.740Z,997.60
2023-01-07T02:54:43.760Z,997.59
2023-01-07T02:55:43.789Z,997.59
2023-01-07T02:56:43.806Z,997.55
2023-01-07T02:57:43.664Z,997.51
2023-01-07T02:58:43.670Z,997.52
2023-01-07T02:59:43.679Z,997.51
2023-01-07T03:00:43.674Z,997.50
2023-01-07T03:01:43.793Z,997.49
2023-01-07T03:02:43.598Z,997.48
2023-01-07T03:03:43.634Z,997.50
2023-01-07T03:04:43.641Z,997.49
2023-01-07T03:05:43.527Z,997.48
2023-01-07T03:06:43.531Z,997.47
2023-01-07T03:07:43.507Z,997.48
2023-01-07T03:08:43.494Z,997.44
2023-01-07T03:09:43.493Z,997.42
2023-01-07T03:10:43.544Z,997.38
2023-01-07T03:11:43.559Z,997.35
2023-01-07T03:13:04.526Z,997.38
2023-01-07T03:13:43.502Z,997.36
2023-01-07T03:14:43.376Z,997.32
2023-01-07T03:15:43.397Z,997.34
2023-01-07T03:16:43.471Z,997.35
2023-01-07T03:17:43.553Z,997.35
2023-01-07T03:18:43.366Z,997.33
2023-01-07T03:19:43.294Z,997.30
2023-01-07T03:20:43.365Z,997.29
2023-01-07T03:21:43.344Z,997.24
2023-01-07T03:22:43.619Z,997.23
2023-01-07T03:23:43.372Z,997.26
2023-01-07T03:24:43.338Z,997.25
2023-01-07T03:25:43.271Z,997.23
2023-01-07T03:26:43.257Z,997.21
2023-01-07T03:27:43.271Z,997.23
2023-01-07T03:28:43.256Z,997.22
2023-01-07T03:29:43.234Z,997.24
2023-01-07T03:30:43.323Z,997.22
2023-01-07T03:31:43.183Z,997.17
2023-01-07T03:32:43.712Z,997.18
2023-01-07T03:33:43.139Z,997.16
2023-01-07T03:34:43.117Z,997.17
2023-01-07T03:35:43.194Z,997.18
2023-01-07T03:36:43.098Z,997.15
2023-01-07T03:37:43.057Z,997.18
2023-01-07T03:38:42.986Z,997.18
2023-01-07T03:39:43.084Z,997.16
2023-01-07T03:40:43.058Z,997.20
2023-01-07T03:41:43.045Z,997.18
2023-01-07T03:42:42.988Z,997.16
2023-01-07T03:43:43.066Z,997.14
2023-01-07T03:44:42.939Z,997.17
2023-01-07T03:45:43.052Z,997.15
2023-01-07T03:46:42.942Z,997.14
2023-01-07T03:47:42.857Z,997.13
2023-01-07T03:48:42.825Z,997.13
2023-01-07T03:49:42.842Z,997.12
2023-01-07T03:50:42.810Z,997.11
2023-01-07T03:51:42.813Z,997.11
2023-01-07T03:52:53.004Z,997.07
2023-01-07T03:54:40.799Z,997.10
2023-01-07T03:55:40.776Z,997.07
2023-01-07T03:57:49.792Z,997.03
2023-01-07T03:58:49.803Z,997.05
2023-01-07T04:00:55.451Z,997.02
2023-01-07T04:01:55.248Z,997.00
2023-01-07T04:04:05.306Z,996.92
2023-01-07T04:05:05.246Z,996.94
2023-01-07T04:07:12.089Z,996.88
2023-01-07T04:08:12.134Z,996.85
2023-01-07T04:10:19.095Z,996.85
2023-01-07T04:11:18.983Z,996.83
2023-01-07T04:13:26.031Z,996.82
2023-01-07T04:14:26.049Z,996.82
2023-01-07T04:16:34.142Z,996.78
2023-01-07T04:17:33.969Z,996.79
2023-01-07T04:19:43.968Z,996.80
2023-01-07T04:20:43.935Z,996.79
2023-01-07T04:22:50.972Z,996.76
2023-01-07T04:23:50.916Z,996.76
2023-01-07T04:25:57.854Z,996.76
2023-01-07T04:26:57.800Z,996.79
2023-01-07T04:29:05.269Z,996.76
2023-01-07T04:30:04.846Z,996.75
2023-01-07T04:31:04.824Z,996.73
2023-01-07T04:32:04.739Z,996.71
2023-01-07T04:33:04.718Z,996.69
2023-01-07T04:34:04.715Z,996.68
2023-01-07T04:35:04.668Z,996.69
2023-01-07T04:36:04.649Z,996.70
2023-01-07T04:37:04.631Z,996.64
2023-01-07T04:38:04.623Z,996.63
2023-01-07T04:39:04.597Z,996.64
2023-01-07T04:40:04.583Z,996.59
2023-01-07T04:41:04.565Z,996.57
2023-01-07T04:42:04.547Z,996.58
2023-01-07T04:43:04.556Z,996.58
2023-01-07T04:44:04.538Z,996.55
2023-01-07T04:45:04.513Z,996.58
2023-01-07T04:46:04.742Z,996.52
2023-01-07T04:47:04.468Z,996.52
2023-01-07T04:48:04.454Z,996.50
2023-01-07T04:49:04.443Z,996.51
2023-01-07T04:50:04.420Z,996.49
2023-01-07T04:51:04.439Z,996.47
2023-01-07T04:52:04.425Z,996.47
2023-01-07T04:53:04.376Z,996.45
2023-01-07T04:54:04.362Z,996.47
2023-01-07T04:55:04.346Z,996.42
2023-01-07T04:56:04.326Z,996.45
2023-01-07T04:57:04.335Z,996.46
2023-01-07T04:58:04.312Z,996.43
2023-01-07T04:59:04.294Z,996.41
2023-01-07T05:00:04.268Z,996.47
2023-01-07T05:01:04.458Z,996.42
2023-01-07T05:02:04.528Z,996.42
2023-01-07T05:03:04.269Z,996.42
2023-01-07T05:04:04.327Z,996.42
2023-01-07T05:05:04.261Z,996.42
2023-01-07T05:06:04.211Z,996.43
2023-01-07T05:07:04.160Z,996.42
2023-01-07T05:08:04.171Z,996.42
2023-01-07T05:09:04.137Z,996.39
2023-01-07T05:10:04.163Z,996.33
2023-01-07T05:11:04.143Z,996.30
2023-01-07T05:12:04.123Z,996.33
2023-01-07T05:13:06.581Z,996.29
2023-01-07T05:14:04.026Z,996.25
2023-01-07T05:15:04.106Z,996.30
2023-01-07T05:16:04.037Z,996.27
2023-01-07T05:17:04.068Z,996.26
2023-01-07T05:18:04.062Z,996.22
2023-01-07T05:19:03.987Z,996.26
2023-01-07T06:26:33.471Z,995.85
2023-01-07T06:27:33.055Z,995.82
2023-01-07T07:22:04.888Z,995.32
2023-01-07T07:23:04.360Z,995.30
2023-01-07T07:25:09.862Z,995.28
2023-01-07T07:26:09.737Z,995.29
2023-01-07T07:28:15.265Z,995.31
2023-01-07T07:29:14.854Z,995.33
2023-01-07T07:31:09.720Z,995.26
2023-01-07T07:32:09.562Z,995.29
2023-01-07T07:33:09.205Z,995.24
2023-01-07T07:34:09.197Z,995.25
2023-01-07T07:35:09.175Z,995.25
2023-01-07T07:36:09.157Z,995.25
2023-01-07T07:37:09.259Z,995.21
2023-01-07T07:38:09.180Z,995.24
2023-01-07T07:39:09.106Z,995.19
2023-01-07T07:40:09.094Z,995.17
2023-01-07T07:41:09.116Z,995.18
2023-01-07T07:42:09.113Z,995.14
2023-01-07T07:43:12.688Z,995.16
2023-01-07T07:44:09.030Z,995.12
2023-01-07T07:45:09.007Z,995.14
2023-01-07T07:46:09.037Z,995.13
2023-01-07T07:47:08.976Z,995.12
2023-01-07T07:48:08.969Z,995.16
2023-01-07T07:49:08.948Z,995.12
2023-01-07T07:50:08.929Z,995.10
2023-01-07T07:51:08.910Z,995.13
2023-01-07T07:52:08.900Z,995.09
2023-01-07T07:53:08.975Z,995.10
2023-01-07T07:54:08.871Z,995.08
2023-01-07T07:55:19.937Z,995.06
2023-01-07T07:56:08.849Z,995.06
2023-01-07T07:57:08.813Z,995.06
2023-01-07T07:58:08.803Z,995.09
2023-01-07T07:59:08.783Z,995.06
2023-01-07T08:00:08.779Z,995.05
2023-01-07T08:01:08.799Z,995.05
2023-01-07T08:02:08.810Z,995.05
2023-01-07T08:03:08.860Z,995.04
2023-01-07T08:04:08.705Z,995.05
2023-01-07T08:05:08.683Z,995.05
2023-01-07T08:06:08.672Z,995.10
2023-01-07T08:07:08.658Z,995.06
2023-01-07T08:08:08.638Z,995.06
2023-01-07T08:09:08.722Z,995.08
2023-01-07T08:10:08.606Z,995.07
2023-01-07T08:11:08.601Z,995.05
2023-01-07T08:12:08.574Z,995.07
2023-01-07T08:13:08.555Z,995.01
2023-01-07T08:14:08.540Z,995.00
2023-01-07T08:15:08.530Z,994.98
2023-01-07T08:16:08.568Z,994.94
2023-01-07T08:17:08.521Z,994.95
2023-01-07T08:18:08.475Z,994.94
2023-01-07T08:19:08.457Z,994.94
2023-01-07T08:20:08.441Z,994.93
2023-01-07T08:21:08.438Z,994.93
2023-01-07T08:22:08.430Z,994.93
2023-01-07T08:23:08.394Z,994.91
2023-01-07T08:24:08.385Z,994.87
2023-01-07T08:25:08.457Z,994.88
2023-01-07T08:26:08.348Z,994.85
2023-01-07T08:27:08.335Z,994.87
2023-01-07T08:28:08.316Z,994.86
2023-01-07T08:29:08.297Z,994.82
2023-01-07T08:30:08.284Z,994.82
2023-01-07T08:31:08.322Z,994.81
2023-01-07T08:32:08.253Z,994.84
2023-01-07T08:33:08.236Z,994.81
2023-01-07T08:34:08.218Z,994.77
2023-01-07T08:35:08.201Z,994.79
2023-01-07T08:36:18.019Z,994.76
2023-01-07T08:37:08.172Z,994.80
2023-01-07T08:38:08.152Z,994.77
2023-01-07T08:39:08.136Z,994.74
2023-01-07T08:40:08.136Z,994.75
2023-01-07T08:41:08.208Z,994.75
2023-01-07T08:42:08.089Z,994.70
2023-01-07T08:43:08.072Z,994.70
2023-01-07T08:44:08.067Z,994.72
2023-01-07T08:45:08.047Z,994.69
2023-01-07T08:46:08.025Z,994.69
2023-01-07T08:47:08.013Z,994.73
2023-01-07T08:48:07.993Z,994.67
2023-01-07T08:49:07.975Z,994.65
2023-01-07T08:50:07.962Z,994.65
2023-01-07T08:51:07.961Z,994.70
2023-01-07T08:52:07.928Z,994.64
2023-01-07T08:53:07.915Z,994.62
2023-01-07T08:54:07.900Z,994.59
2023-01-07T08:55:07.883Z,994.61
2023-01-07T08:56:07.869Z,994.58
2023-01-07T08:57:07.965Z,994.61
2023-01-07T08:58:07.832Z,994.61
2023-01-07T08:59:07.827Z,994.59
2023-01-07T09:00:07.809Z,994.59
2023-01-07T09:01:07.950Z,994.58
2023-01-07T09:02:07.892Z,994.57
2023-01-07T09:03:07.752Z,994.56
2023-01-07T09:04:07.739Z,994.59
2023-01-07T09:05:07.719Z,994.53
2023-01-07T09:06:07.709Z,994.55
2023-01-07T09:07:07.699Z,994.51
2023-01-07T09:08:07.673Z,994.51
2023-01-07T09:09:07.672Z,994.52
2023-01-07T09:10:07.655Z,994.51
2023-01-07T09:11:07.625Z,994.46
2023-01-07T09:12:10.645Z,994.45
2023-01-07T09:13:07.698Z,994.42
2023-01-07T09:14:07.588Z,994.42
2023-01-07T09:15:07.584Z,994.38
2023-01-07T09:16:07.673Z,994.38
2023-01-07T09:17:07.528Z,994.37
2023-01-07T09:18:07.517Z,994.40
2023-01-07T09:19:07.500Z,994.40
2023-01-07T09:20:07.498Z,994.39
2023-01-07T09:21:07.468Z,994.41
2023-01-07T09:22:07.451Z,994.42
2023-01-07T09:23:07.447Z,994.41
2023-01-07T09:24:07.426Z,994.39
2023-01-07T09:25:07.404Z,994.41
2023-01-07T09:26:07.418Z,994.43
2023-01-07T09:27:07.375Z,994.45
2023-01-07T09:28:07.366Z,994.42
2023-01-07T09:29:07.444Z,994.42
2023-01-07T09:30:07.326Z,994.39
2023-01-07T09:31:07.322Z,994.39
2023-01-07T09:32:07.296Z,994.35
2023-01-07T09:33:07.283Z,994.39
2023-01-07T09:34:07.272Z,994.35
2023-01-07T09:35:07.254Z,994.35
2023-01-07T09:36:07.240Z,994.39
2023-01-07T09:37:07.218Z,994.36
2023-01-07T09:38:07.203Z,994.35
2023-01-07T09:39:07.202Z,994.34
2023-01-07T09:40:07.171Z,994.36
2023-01-07T09:41:07.155Z,994.31
2023-01-07T09:42:07.152Z,994.30
2023-01-07T09:43:07.836Z,994.27
2023-01-07T09:44:07.122Z,994.32
2023-01-07T09:45:07.198Z,994.32
2023-01-07T09:46:07.341Z,994.30
2023-01-07T09:47:07.062Z,994.31
2023-01-07T09:48:07.050Z,994.30
2023-01-07T09:49:07.036Z,994.23
2023-01-07T09:50:07.028Z,994.25
2023-01-07T09:51:07.001Z,994.28
2023-01-07T09:52:06.986Z,994.27
2023-01-07T09:53:06.971Z,994.27
2023-01-07T09:54:06.951Z,994.21
2023-01-07T09:55:06.957Z,994.21
2023-01-07T09:56:10.436Z,994.17
2023-01-07T09:57:06.906Z,994.16
2023-01-07T09:58:06.893Z,994.17
2023-01-07T09:59:06.875Z,994.20
2023-01-07T10:00:06.859Z,994.15
2023-01-07T10:01:07.034Z,994.17
2023-01-07T10:02:06.850Z,994.12
2023-01-07T10:03:06.816Z,994.12
2023-01-07T10:04:06.877Z,994.15
2023-01-07T10:05:06.781Z,994.09
2023-01-07T10:06:06.769Z,994.07
2023-01-07T10:07:06.749Z,994.09
2023-01-07T10:08:29.710Z,994.05
2023-01-07T10:09:06.733Z,994.02
2023-01-07T10:10:06.708Z,994.05
2023-01-07T10:11:06.689Z,994.05
2023-01-07T10:12:06.673Z,994.01
2023-01-07T10:13:06.655Z,994.02
2023-01-07T10:14:06.639Z,994.07
2023-01-07T10:15:06.633Z,994.01
2023-01-07T10:16:06.672Z,994.00
2023-01-07T10:17:06.697Z,994.01
2023-01-07T10:18:08.395Z,994.00
2023-01-07T10:19:06.561Z,993.96
2023-01-07T10:20:06.549Z,993.96
2023-01-07T10:21:06.531Z,993.94
2023-01-07T10:22:06.512Z,993.96
2023-01-07T10:23:06.512Z,993.94
2023-01-07T10:24:06.488Z,993.93
2023-01-07T10:25:06.472Z,993.91
2023-01-07T10:26:06.469Z,993.94
2023-01-07T10:27:06.438Z,993.89
2023-01-07T10:28:06.423Z,993.91
2023-01-07T10:29:06.406Z,993.86
2023-01-07T10:30:06.391Z,993.86
2023-01-07T10:31:06.371Z,993.86
2023-01-07T10:32:06.357Z,993.83
2023-01-07T10:33:06.436Z,993.83
2023-01-07T10:34:06.323Z,993.82
2023-01-07T10:35:06.312Z,993.80
2023-01-07T10:36:06.295Z,993.78
2023-01-07T10:37:06.281Z,993.77
2023-01-07T10:38:06.263Z,993.74
2023-01-07T10:39:06.248Z,993.75
2023-01-07T10:40:06.240Z,993.77
2023-01-07T10:41:06.223Z,993.70
2023-01-07T10:42:06.202Z,993.69
2023-01-07T10:43:06.189Z,993.69
2023-01-07T10:44:06.169Z,993.66
2023-01-07T10:45:06.155Z,993.65
2023-01-07T10:46:06.208Z,993.64
2023-01-07T10:47:06.134Z,993.59
2023-01-07T10:48:06.111Z,993.62
2023-01-07T10:49:06.206Z,993.57
2023-01-07T10:50:06.079Z,993.59
2023-01-07T10:51:06.070Z,993.60
2023-01-07T10:52:06.051Z,993.58
2023-01-07T10:53:06.037Z,993.56
2023-01-07T10:54:06.018Z,993.55
2023-01-07T10:55:06.015Z,993.50
2023-01-07T10:56:06.001Z,993.46
2023-01-07T10:57:05.983Z,993.46
2023-01-07T10:58:05.969Z,993.39
2023-01-07T10:59:05.944Z,993.42
2023-01-07T11:00:05.945Z,993.40
2023-01-07T11:01:06.128Z,993.36
2023-01-07T11:02:06.137Z,993.37
2023-01-07T11:03:05.943Z,993.36
2023-01-07T11:04:05.910Z,993.34
2023-01-07T11:05:05.961Z,993.30
2023-01-07T11:06:05.837Z,993.29
2023-01-07T11:07:05.828Z,993.30
2023-01-07T11:08:05.819Z,993.25
2023-01-07T11:09:05.800Z,993.25
2023-01-07T11:10:05.790Z,993.21
2023-01-07T11:11:05.770Z,993.24
2023-01-07T11:12:05.754Z,993.22
2023-01-07T11:13:05.738Z,993.23
2023-01-07T11:14:05.742Z,993.25
2023-01-07T11:15:05.708Z,993.19
2023-01-07T11:16:05.689Z,993.16
2023-01-07T11:17:05.676Z,993.16
2023-01-07T11:18:05.668Z,993.16
2023-01-07T11:19:05.653Z,993.18
2023-01-07T11:20:05.643Z,993.14
2023-01-07T11:21:05.725Z,993.14
2023-01-07T11:22:05.601Z,993.13
2023-01-07T11:23:05.587Z,993.14
2023-01-07T11:24:05.616Z,993.05
2023-01-07T11:25:05.555Z,993.03
2023-01-07T11:26:05.543Z,993.03
2023-01-07T11:27:05.541Z,993.04
2023-01-07T11:28:05.517Z,992.97
2023-01-07T11:29:05.496Z,992.98
2023-01-07T11:30:05.499Z,992.95
2023-01-07T11:31:05.477Z,992.96
2023-01-07T11:32:05.550Z,992.95
2023-01-07T11:33:05.441Z,992.89
2023-01-07T11:34:05.551Z,992.86
2023-01-07T11:35:05.410Z,992.80
2023-01-07T11:36:05.395Z,992.71
2023-01-07T11:37:05.482Z,992.70
2023-01-07T11:38:05.360Z,992.70
2023-01-07T11:39:05.389Z,992.64
2023-01-07T11:40:05.341Z,992.59
2023-01-07T11:41:05.317Z,992.57
2023-01-07T11:42:05.311Z,992.50
2023-01-07T11:43:05.288Z,992.59
2023-01-07T11:44:05.280Z,992.48
2023-01-07T11:45:05.256Z,992.50
2023-01-07T11:46:21.407Z,992.47
2023-01-07T11:47:05.244Z,992.45
2023-01-07T11:48:05.223Z,992.40
2023-01-07T11:49:05.205Z,992.42
2023-01-07T11:50:05.226Z,992.34
2023-01-07T11:51:05.192Z,992.33
2023-01-07T11:52:05.156Z,992.34
2023-01-07T11:53:05.239Z,992.29
2023-01-07T11:54:05.124Z,992.25
2023-01-07T11:55:05.110Z,992.26
2023-01-07T11:56:05.093Z,992.20
2023-01-07T11:57:05.082Z,992.19
2023-01-07T11:58:29.577Z,992.19
2023-01-07T11:59:05.048Z,992.16
2023-01-07T12:00:05.035Z,992.16
2023-01-07T12:01:05.063Z,992.13
2023-01-07T12:02:05.053Z,992.10
2023-01-07T12:03:05.024Z,992.11
2023-01-07T12:04:04.971Z,992.12
2023-01-07T12:05:04.958Z,992.05
2023-01-07T12:06:04.953Z,992.07
2023-01-07T12:07:04.927Z,992.05
2023-01-07T12:08:04.909Z,992.04
2023-01-07T12:09:04.989Z,992.02
2023-01-07T12:10:04.878Z,991.99
2023-01-07T12:11:04.889Z,991.97
2023-01-07T12:12:04.848Z,991.97
2023-01-07T12:13:04.836Z,991.90
2023-01-07T12:14:04.843Z,991.90
2023-01-07T12:15:04.814Z,991.89
2023-01-07T12:16:04.825Z,991.87
2023-01-07T12:17:04.773Z,991.87
2023-01-07T12:18:04.766Z,991.95
2023-01-07T12:19:04.743Z,991.89
2023-01-07T12:20:04.726Z,991.88
2023-01-07T12:21:04.738Z,991.90
2023-01-07T12:22:04.693Z,991.89
2023-01-07T12:23:04.695Z,991.91
2023-01-07T12:24:04.680Z,991.87
2023-01-07T12:25:04.751Z,991.90
2023-01-07T12:26:04.661Z,991.85
2023-01-07T12:27:04.644Z,991.85
2023-01-07T12:28:04.600Z,991.79
2023-01-07T12:29:04.637Z,991.80
2023-01-07T12:30:04.629Z,991.78
2023-01-07T12:31:04.599Z,991.74
2023-01-07T12:32:04.555Z,991.68
2023-01-07T12:33:04.521Z,991.69
2023-01-07T12:34:04.512Z,991.70
2023-01-07T12:35:14.291Z,991.63
2023-01-07T12:36:04.477Z,991.65
2023-01-07T12:37:04.466Z,991.67
2023-01-07T12:38:04.462Z,991.65
2023-01-07T12:39:04.433Z,991.60
2023-01-07T12:40:04.437Z,991.59
2023-01-07T12:41:04.498Z,991.60
2023-01-07T12:42:04.403Z,991.61
2023-01-07T12:43:04.373Z,991.60
2023-01-07T12:44:04.361Z,991.64
2023-01-07T12:45:04.341Z,991.58
2023-01-07T12:46:04.372Z,991.51
2023-01-07T12:47:31.938Z,991.50
2023-01-07T12:48:04.318Z,991.52
2023-01-07T12:49:04.280Z,991.49
2023-01-07T12:50:04.259Z,991.51
2023-01-07T12:51:04.244Z,991.50
2023-01-07T12:52:04.240Z,991.49
2023-01-07T12:53:04.218Z,991.47
2023-01-07T12:54:04.198Z,991.46
2023-01-07T12:55:04.182Z,991.40
2023-01-07T12:56:04.165Z,991.44
2023-01-07T12:57:04.254Z,991.39
2023-01-07T12:58:04.139Z,991.38
2023-01-07T12:59:04.131Z,991.40
2023-01-07T13:00:04.103Z,991.40
2023-01-07T13:01:04.210Z,991.36
2023-01-07T13:02:04.414Z,991.39
2023-01-07T13:03:04.063Z,991.35
2023-01-07T13:04:04.042Z,991.32
2023-01-07T13:05:04.160Z,991.35
2023-01-07T13:06:04.014Z,991.30
2023-01-07T13:07:04.006Z,991.34
2023-01-07T13:08:04.505Z,991.32
2023-01-07T13:09:03.971Z,991.31
2023-01-07T13:10:03.949Z,991.29
2023-01-07T13:11:03.934Z,991.29
2023-01-07T13:12:03.946Z,991.33
2023-01-07T13:13:03.997Z,991.33
2023-01-07T13:14:03.957Z,991.28
2023-01-07T13:15:03.879Z,991.23
2023-01-07T13:16:03.952Z,991.20
2023-01-07T13:17:03.842Z,991.22
2023-01-07T13:18:03.835Z,991.19
2023-01-07T13:19:03.814Z,991.16
2023-01-07T13:20:04.958Z,991.16
2023-01-07T13:21:03.786Z,991.21
2023-01-07T13:22:03.761Z,991.22
2023-01-07T13:23:03.751Z,991.20
2023-01-07T13:24:03.735Z,991.12
2023-01-07T13:25:03.720Z,991.09
2023-01-07T13:26:03.705Z,991.11
2023-01-07T13:27:03.687Z,991.09
2023-01-07T13:28:03.673Z,991.05
2023-01-07T13:29:03.773Z,991.11
2023-01-07T13:30:03.645Z,991.07
2023-01-07T13:31:03.647Z,991.03
2023-01-07T13:32:03.611Z,991.06
2023-01-07T13:33:03.593Z,991.02
2023-01-07T13:34:03.577Z,990.99
2023-01-07T13:35:03.575Z,990.95
2023-01-07T13:36:03.552Z,990.95
2023-01-07T13:37:03.757Z,990.93
2023-01-07T13:38:03.521Z,990.92
2023-01-07T13:39:03.504Z,990.93
2023-01-07T13:40:03.487Z,990.94
2023-01-07T13:41:03.475Z,990.92
2023-01-07T13:42:03.461Z,990.94
2023-01-07T13:43:03.454Z,990.94
2023-01-07T13:44:03.428Z,990.92
2023-01-07T13:45:03.519Z,990.91
2023-01-07T13:46:03.484Z,990.91
2023-01-07T13:47:03.385Z,990.86
2023-01-07T13:48:03.362Z,990.87
2023-01-07T13:49:03.365Z,990.89
2023-01-07T13:50:03.342Z,990.92
2023-01-07T13:51:03.323Z,990.86
2023-01-07T13:52:03.302Z,990.87
2023-01-07T13:53:03.302Z,990.86
2023-01-07T13:54:03.273Z,990.89
2023-01-07T13:55:03.274Z,990.95
2023-01-07T13:56:03.254Z,990.92
2023-01-07T13:57:03.227Z,990.92
2023-01-07T13:58:03.216Z,990.88
2023-01-07T13:59:03.196Z,990.87
2023-01-07T14:00:03.180Z,990.85
2023-01-07T14:01:03.482Z,990.89
2023-01-07T14:02:03.314Z,990.89
2023-01-07T14:03:03.179Z,990.91
2023-01-07T14:04:03.122Z,990.97
2023-01-07T14:05:03.112Z,990.97
2023-01-07T14:06:03.089Z,990.96
2023-01-07T14:07:03.095Z,990.97
2023-01-07T14:08:03.057Z,990.96
2023-01-07T14:09:03.043Z,990.90
2023-01-07T14:10:03.034Z,990.90
2023-01-07T14:11:03.012Z,990.89
2023-01-07T14:12:02.996Z,990.89
2023-01-07T14:13:02.993Z,990.92
2023-01-07T14:14:02.966Z,990.90
2023-01-07T14:15:02.963Z,990.89
2023-01-07T14:16:02.972Z,990.88
2023-01-07T14:17:03.022Z,990.87
2023-01-07T14:18:02.909Z,990.85
2023-01-07T14:19:02.890Z,990.84
2023-01-07T14:20:02.879Z,990.79
2023-01-07T14:21:02.862Z,990.78
2023-01-07T14:22:02.844Z,990.79
2023-01-07T14:23:02.827Z,990.86
2023-01-07T14:24:02.821Z,990.89
2023-01-07T14:25:02.805Z,990.86
2023-01-07T14:26:02.785Z,990.86
2023-01-07T14:27:02.774Z,990.87
2023-01-07T14:28:02.755Z,990.89
2023-01-07T14:29:02.739Z,990.91
2023-01-07T14:30:15.953Z,990.92
2023-01-07T14:31:02.731Z,990.93
2023-01-07T14:32:02.691Z,990.89
2023-01-07T14:33:02.884Z,990.84
2023-01-07T14:34:02.671Z,990.87
2023-01-07T14:35:02.652Z,990.81
2023-01-07T14:36:02.642Z,990.79
2023-01-07T14:37:02.834Z,990.81
2023-01-07T14:38:02.601Z,990.82
2023-01-07T14:39:02.587Z,990.80
2023-01-07T14:40:02.574Z,990.78
2023-01-07T14:41:02.570Z,990.77
2023-01-07T14:42:02.582Z,990.76
2023-01-07T14:43:02.532Z,990.76
2023-01-07T14:44:02.632Z,990.77
2023-01-07T14:45:02.512Z,990.78